createdAt,value
2022-11-13T00:00:01.033Z,1038.11
2022-11-13T00:10:00.280Z,1038.04
2022-11-13T00:20:01.211Z,1038.05
2022-11-13T00:30:01.673Z,1037.97
2022-11-13T00:40:00.160Z,1037.90
2022-11-13T00:50:01.403Z,1037.91
2022-11-13T01:00:01.273Z,1037.78
2022-11-13T01:10:01.712Z,1037.65
2022-11-13T01:20:02.571Z,1037.61
2022-11-13T01:30:00.276Z,1037.62
2022-11-13T01:40:01.516Z,1037.57
2022-11-13T01:50:00.253Z,1037.52
2022-11-13T02:00:01.024Z,1037.38
2022-11-13T02:20:00.109Z,1037.09
2022-11-13T02:30:01.312Z,1037.03
2022-11-13T02:40:02.003Z,1036.93
2022-11-13T02:50:00.934Z,1036.72
2022-11-13T03:00:01.549Z,1036.61
2022-11-13T03:10:01.754Z,1036.47
2022-11-13T03:20:01.290Z,1036.50
2022-11-13T03:30:01.170Z,1036.43
2022-11-13T03:40:00.803Z,1036.45
2022-11-13T03:50:00.270Z,1036.44
2022-11-13T04:00:00.150Z,1036.43
2022-11-13T04:10:01.328Z,1036.45
2022-11-13T04:20:00.976Z,1036.36
2022-11-13T04:30:01.112Z,1036.24
2022-11-13T04:40:01.229Z,1036.18
2022-11-13T04:50:01.882Z,1036.16
2022-11-13T05:00:00.162Z,1036.11
2022-11-13T05:10:01.555Z,1036.15
2022-11-13T05:20:02.149Z,1036.10
2022-11-13T05:40:01.005Z,1036.06
2022-11-13T06:00:01.021Z,1035.97
2022-11-13T06:10:01.164Z,1035.90
2022-11-13T06:20:01.351Z,1035.90
2022-11-13T06:40:00.813Z,1035.77
2022-11-13T06:50:01.480Z,1035.78
2022-11-13T07:00:00.147Z,1035.77
2022-11-13T07:10:01.812Z,1035.69
2022-11-13T07:20:00.156Z,1035.64
2022-11-13T07:30:03.760Z,1035.62
2022-11-13T07:40:01.219Z,1035.62
2022-11-13T07:50:08.264Z,1035.70
2022-11-13T08:00:01.040Z,1035.58
2022-11-13T08:10:01.111Z,1035.57
2022-11-13T08:20:02.081Z,1035.64
2022-11-13T08:30:01.168Z,1035.55
2022-11-13T08:40:01.278Z,1035.43
2022-11-13T08:50:01.628Z,1035.48
2022-11-13T09:00:01.330Z,1035.30
2022-11-13T09:10:01.561Z,1035.16
2022-11-13T09:20:04.164Z,1035.11
2022-11-13T09:30:00.254Z,1035.07
2022-11-13T09:40:01.540Z,1034.96
2022-11-13T09:50:02.101Z,1034.82
2022-11-13T10:00:00.148Z,1034.84
2022-11-13T10:10:00.271Z,1034.70
2022-11-13T10:20:00.188Z,1034.58
2022-11-13T10:30:01.313Z,1034.49
2022-11-13T10:40:01.235Z,1034.37
2022-11-13T10:50:01.145Z,1034.30
2022-11-13T11:00:01.308Z,1034.16
2022-11-13T11:10:01.175Z,1034.02
2022-11-13T11:20:01.278Z,1034.01
2022-11-13T11:30:01.359Z,1033.74
2022-11-13T11:40:00.150Z,1033.64
2022-11-13T11:50:01.135Z,1033.51
2022-11-13T12:00:01.073Z,1033.37
2022-11-13T12:10:00.252Z,1033.14
2022-11-13T12:20:00.130Z,1033.11
2022-11-13T12:30:01.139Z,1032.95
2022-11-13T12:40:02.047Z,1032.85
2022-11-13T12:50:01.384Z,1032.77
2022-11-13T13:00:01.572Z,1032.55
2022-11-13T13:10:00.253Z,1032.44
2022-11-13T13:20:01.188Z,1032.34
2022-11-13T13:30:01.166Z,1032.37
2022-11-13T13:40:01.193Z,1032.29
2022-11-13T13:50:01.098Z,1032.28
2022-11-13T14:00:01.337Z,1032.28
2022-11-13T14:10:01.367Z,1032.18
2022-11-13T14:20:01.149Z,1032.15
2022-11-13T14:30:00.259Z,1032.11
2022-11-13T14:40:01.060Z,1032.18
2022-11-13T14:50:01.234Z,1032.10
2022-11-13T15:00:01.041Z,1032.08
2022-11-13T15:10:00.278Z,1032.13
2022-11-13T15:20:04.166Z,1032.07
2022-11-13T15:30:01.459Z,1032.14
2022-11-13T15:40:01.024Z,1032.12
2022-11-13T15:50:13.286Z,1032.11
2022-11-13T16:00:01.118Z,1032.13
2022-11-13T16:10:01.393Z,1032.11
2022-11-13T16:20:01.078Z,1032.18
2022-11-13T16:30:05.461Z,1032.12
2022-11-13T16:40:00.172Z,1032.16
2022-11-13T16:50:01.656Z,1032.22
2022-11-13T17:00:01.106Z,1032.26
2022-11-13T17:10:29.448Z,1032.28
2022-11-13T17:20:01.069Z,1032.23
2022-11-13T17:30:00.291Z,1032.21
2022-11-13T17:40:01.047Z,1032.29
2022-11-13T17:50:05.803Z,1032.23
2022-11-13T18:00:01.079Z,1032.35
2022-11-13T18:10:01.595Z,1032.23
2022-11-13T18:20:02.102Z,1032.12
2022-11-13T18:30:01.451Z,1032.06
2022-11-13T18:40:01.017Z,1032.04
2022-11-13T18:50:01.205Z,1032.03
2022-11-13T19:00:02.367Z,1032.10
2022-11-13T19:10:01.540Z,1032.08
2022-11-13T19:20:01.555Z,1031.96
2022-11-13T19:30:01.690Z,1032.08
2022-11-13T19:40:00.162Z,1032.09
2022-11-13T19:50:01.160Z,1031.91
2022-11-13T20:00:01.246Z,1031.81
2022-11-13T20:10:01.166Z,1031.75
2022-11-13T20:20:01.021Z,1031.77
2022-11-13T20:30:01.690Z,1031.75
2022-11-13T20:40:04.109Z,1031.87
2022-11-13T20:50:01.177Z,1031.76
2022-11-13T21:00:01.115Z,1031.61
2022-11-13T21:10:00.280Z,1031.48
2022-11-13T21:20:00.986Z,1031.50
2022-11-13T21:30:01.580Z,1031.46
2022-11-13T21:40:00.990Z,1031.49
2022-11-13T21:50:00.258Z,1031.37
2022-11-13T22:00:01.215Z,1031.37
2022-11-13T22:10:04.132Z,1031.27
2022-11-13T22:20:01.116Z,1031.18
2022-11-13T22:30:01.200Z,1031.13
2022-11-13T22:40:00.144Z,1030.94
2022-11-13T22:50:00.262Z,1030.77
2022-11-13T23:00:01.279Z,1030.65
2022-11-13T23:10:00.247Z,1030.58
2022-11-13T23:20:01.064Z,1030.66
2022-11-13T23:40:01.485Z,1030.48
2022-11-13T23:50:00.281Z,1030.48
